Skowhegan, Maine
Current Conditions -  °F | °C
As of 7:15 PM on Wednesday 26 Nov 2014 (Local Time) from KWVL Reporting Station
Overcast Overcast  
Wind Chill: 20°   Ceiling: 500
Heat Index: 30°   Visibility: 0.25mi
Dew Point: 27°   Wind: 14mph
Humidity: 86%   Direction: 20°NNE
Pressure: 29.98"   Gusts: NA
Location:  44.77°N, 69.72°W
Report Text: KWVL 270015Z 02012KT 1/4SM OVC005 M01/M03 A2998 RMK AO1 P0001
Loading
Personal Weather Stations






























Interactive Weather Map New forecast layout! Learn more

10-Day Weather Forecast

Advertisements
Track Severe Weather on mobile